Flight Track Log - Related Links

Times and Time Zones

All times are in EDT time to prevent confusion due to time zone crossing. See the GJS3649 flight status page for this flight to view local times or setup timezone preferences in your user account.

Time Position Orientation Groundspeed Altitude Reporting Facility
EDT Latitude Longitude Course Direction KTS MPH feet Rate Location/Type
Mon 07:18:05 AM 36.1844 -95.8828 139° Southeast 154 177 1,200  Level Kansas City Center
Mon 07:19:11 AM 36.1542 -95.8506 139° Southeast 201 231 3,100 1,659 Climbing Kansas City Center
Mon 07:20:08 AM 36.1542 -95.7794 90° East 229 264 4,600 1,831 Climbing Kansas City Center
Mon 07:21:09 AM 36.1911 -95.7081 57° Northeast 260 299 6,700 2,262 Climbing Kansas City Center
Mon 07:22:10 AM 36.2689 -95.6858 13° North 277 319 9,200 1,934 Climbing Kansas City Center
Mon 07:23:10 AM 36.3517 -95.6800 North 291 335 10,600 1,339 Climbing Kansas City Center
Mon 07:24:11 AM 36.4481 -95.6736 North 331 381 11,900 1,475 Climbing Kansas City Center
Mon 07:25:12 AM 36.5481 -95.6658 North 350 403 13,600 1,623 Climbing Kansas City Center
Mon 07:26:13 AM 36.6519 -95.6589 North 363 418 15,200 1,574 Climbing Kansas City Center
Mon 07:27:14 AM 36.7592 -95.6517 North 377 434 16,800 1,475 Climbing Kansas City Center
Mon 07:28:15 AM 36.8675 -95.6444 North 384 442 18,200 1,377 Climbing Kansas City Center
Mon 07:29:16 AM 36.9772 -95.6381 North 390 449 19,600 1,279 Climbing Kansas City Center
Mon 07:30:17 AM 37.0903 -95.6306 North 399 459 20,800 1,131 Climbing Kansas City Center
Mon 07:31:18 AM 37.2058 -95.6222 North 410 472 21,900 1,131 Climbing Kansas City Center
Mon 07:32:19 AM 37.3225 -95.6142 North 415 478 23,100 1,082 Climbing Kansas City Center
Mon 07:33:20 AM 37.4378 -95.6064 North 414 476 24,100 1,082 Climbing Kansas City Center
Mon 07:34:21 AM 37.5789 -95.5975 North 419 482 25,300 1,082 Climbing Kansas City Center
Mon 07:35:22 AM 37.6922 -95.5636 13° North 419 482 26,300 787 Climbing Kansas City Center
Mon 07:36:23 AM 37.8039 -95.5058 22° Northeast 428 493 26,900 590 Climbing Kansas City Center
Mon 07:37:24 AM 37.9175 -95.4519 21° North 434 499 27,500 590 Climbing Kansas City Center
Mon 07:38:25 AM 38.0250 -95.4008 21° North 443 510 28,100 689 Climbing Kansas City Center
Mon 07:39:26 AM 38.1556 -95.3378 21° North 449 517 28,900 689 Climbing Kansas City Center
Mon 07:40:27 AM 38.2675 -95.2822 21° North 449 517 29,500 541 Climbing Kansas City Center
Mon 07:41:28 AM 38.3808 -95.2258 21° North 455 524 30,000 590 Climbing Kansas City Center
Mon 07:42:29 AM 38.5139 -95.1606 21° North 457 526 30,700 492 Climbing Kansas City Center
Mon 07:43:30 AM 38.6283 -95.1028 22° Northeast 462 532 31,000 148 Climbing Kansas City Center
Mon 07:44:31 AM 38.7653 -95.0356 21° North 473 544 31,000  Level Kansas City Center
Mon 07:45:33 AM 38.8844 -94.9758 21° North 480 552 31,000  Level Kansas City Center
Mon 07:46:34 AM 39.0014 -94.9172 21° North 476 548 31,000  Level Kansas City Center
Mon 07:47:35 AM 39.1381 -94.8483 21° North 477 549 31,000  Level Kansas City Center
Mon 07:48:36 AM 39.2561 -94.7883 21° North 478 550 31,000  Level Kansas City Center
Mon 07:49:37 AM 39.3950 -94.7217 20° North 485 558 31,000  Level Kansas City Center
Mon 07:50:38 AM 39.5108 -94.6625 22° Northeast 471 542 31,000  Level Kansas City Center
Mon 07:51:39 AM 39.6467 -94.5928 22° Northeast 471 542 31,000  Level Kansas City Center
Mon 07:52:41 AM 39.7636 -94.5319 22° Northeast 474 545 31,000  Level Kansas City Center
Mon 07:53:42 AM 39.8806 -94.4731 21° North 472 543 31,000  Level Kansas City Center
Mon 07:54:43 AM 40.0181 -94.4011 22° Northeast 475 547 31,000  Level Kansas City Center
Mon 07:55:44 AM 40.1356 -94.3411 21° North 474 545 31,000  Level Kansas City Center
Mon 07:56:46 AM 40.2539 -94.2792 22° Northeast 476 548 31,000  Level Kansas City Center
Mon 07:57:47 AM 40.3961 -94.2036 22° Northeast 481 554 31,000  Level Kansas City Center
Mon 07:58:22 AM 40.4697 -94.1647 22° Northeast 481 554 31,000  Level Minneapolis Center
Mon 07:59:23 AM 40.5939 -94.1003 22° Northeast 483 556 31,000  Level Minneapolis Center
Mon 08:00:24 AM 40.7183 -94.0339 22° Northeast 482 555 31,000  Level Minneapolis Center
Mon 08:01:25 AM 40.8436 -93.9678 22° Northeast 485 558 31,000  Level Minneapolis Center
Mon 08:02:26 AM 40.9689 -93.9011 22° Northeast 487 560 31,000  Level Minneapolis Center
Mon 08:03:27 AM 41.0933 -93.8347 22° Northeast 485 558 31,000  Level Minneapolis Center
Mon 08:04:28 AM 41.2167 -93.7683 22° Northeast 482 555 31,000  Level Minneapolis Center
Mon 08:05:29 AM 41.3392 -93.7028 22° Northeast 479 551 31,000  Level Minneapolis Center
Mon 08:06:31 AM 41.4514 -93.6114 31° Northeast 493 567 31,000  Level Minneapolis Center
Mon 08:07:32 AM 41.5181 -93.4481 61° Northeast 505 581 31,000  Level Minneapolis Center
Mon 08:08:33 AM 41.5981 -93.2511 61° Northeast 507 583 31,000  Level Minneapolis Center
Mon 08:09:34 AM 41.6633 -93.0864 62° Northeast 505 581 31,000  Level Minneapolis Center
Mon 08:10:35 AM 41.7289 -92.9222 62° Northeast 504 580 31,000  Level Minneapolis Center
Mon 08:11:36 AM 41.7969 -92.7481 62° Northeast 503 579 31,000  Level Minneapolis Center
Mon 08:12:30 AM 41.8481 -92.6150 63° Northeast 504 580 31,000  Level Chicago Center
Mon 08:13:32 AM 41.9122 -92.4511 62° Northeast 503 579 31,000  Level Chicago Center
Mon 08:14:33 AM 41.9858 -92.2594 63° Northeast 490 564 31,000  Level Chicago Center
Mon 08:15:35 AM 42.0492 -92.0981 62° Northeast 493 567 31,000  Level Chicago Center
Mon 08:16:37 AM 42.1100 -91.9369 63° Northeast 491 565 31,000  Level Chicago Center
Mon 08:17:39 AM 42.1714 -91.7761 63° Northeast 490 564 31,000  Level Chicago Center
Mon 08:18:40 AM 42.2311 -91.6183 63° Northeast 482 555 31,000 -390 Level Chicago Center
Mon 08:19:42 AM 42.2800 -91.4156 72° East 484 557 30,200 -871 Descending Chicago Center
Mon 08:20:44 AM 42.3081 -91.2353 78° East 497 572 29,200 -581 Descending Chicago Center
Mon 08:21:46 AM 42.3344 -91.0547 79° East 496 571 29,000 -484 Descending Chicago Center
Mon 08:22:48 AM 42.3608 -90.8733 79° East 501 577 28,200 -871 Descending Chicago Center
Mon 08:23:50 AM 42.3864 -90.7022 79° East 468 539 27,200 -1,073 Descending Chicago Center
Mon 08:24:51 AM 42.4131 -90.5156 79° East 430 495 26,000 -1,073 Descending Chicago Center
Mon 08:25:53 AM 42.4358 -90.3606 79° East 427 491 25,000 -968 Descending Chicago Center
Mon 08:26:55 AM 42.4575 -90.2078 79° East 420 483 24,000 -968 Descending Chicago Center
Mon 08:27:57 AM 42.4803 -90.0536 79° East 422 486 23,000 -1,258 Descending Chicago Center
Mon 08:28:59 AM 42.5061 -89.8669 79° East 445 512 21,400 -1,512 Descending Chicago Center
Mon 08:30:00 AM 42.5117 -89.7039 87° East 438 504 19,900 -1,463 Descending Chicago Center
Mon 08:31:02 AM 42.4939 -89.5394 98° East 441 507 18,400 -1,452 Descending Chicago Center
Mon 08:32:04 AM 42.4756 -89.3761 99° East 439 505 16,900 -1,452 Descending Chicago Center
Mon 08:33:06 AM 42.4556 -89.1908 98° East 428 493 15,400 -1,403 Descending Chicago Center
Mon 08:34:08 AM 42.4381 -89.0375 99° East 416 479 14,000 -1,317 Descending Chicago Center
Mon 08:35:09 AM 42.4197 -88.8842 99° East 414 476 12,700 -1,220 Descending Chicago Center
Mon 08:36:11 AM 42.4025 -88.7333 99° East 408 470 11,500 -1,113 Descending Chicago Center
Mon 08:37:13 AM 42.3861 -88.5894 99° East 390 449 10,400 -677 Descending Chicago Center
Mon 08:38:15 AM 42.3642 -88.4603 103° East 361 415 10,100 -145 Descending Chicago Center
Mon 08:39:17 AM 42.3075 -88.3339 121° Southeast 357 411 10,100 -48 Level Chicago Center
Mon 08:40:19 AM 42.2456 -88.2308 129° Southeast 355 409 10,000 -49 Descending Chicago Center
Mon 08:41:20 AM 42.1828 -88.1319 131° Southeast 351 404 10,000 -390 Level Chicago Center
Mon 08:42:22 AM 42.1150 -88.0544 140° Southeast 326 375 9,200 -1,258 Descending Chicago Center
Mon 08:43:24 AM 42.0919 -87.9275 104° East 310 357 7,400 -1,210 Descending Chicago Center
Mon 08:44:26 AM 42.0919 -87.8231 90° East 286 329 6,700 -1,306 Descending Chicago Center
Mon 08:45:28 AM 42.0917 -87.7292 90° East 260 299 4,700 -1,935 Descending Chicago Center
Mon 08:46:30 AM 42.0653 -87.6669 120° Southeast 233 268 2,700 -1,024 Descending Chicago Center
Mon 08:47:31 AM 42.0314 -87.7086 222° Southwest 188 216 2,600 -98 Descending Chicago Center
Mon 08:48:33 AM 42.0064 -87.7586 236° Southwest 171 197 2,500 -387 Descending Chicago Center
Mon 08:49:35 AM 42.0036 -87.8258 267° West 159 183 1,800 -629 Descending Chicago Center
Mon 08:50:37 AM 42.0033 -87.8786 270° West 150 173 1,200 -581 Descending Chicago Center

Login

Don't have an account? Register now (free) for customized features, flight alerts, and more!